MiSS Ellie — WDJ2256 — position and weather

sailwx.info

Track history (hours):
 
Tides and Currents Weather Stations Pressure Air Temp Water Temp Dewpoint Dewpoint Depression Visibility Wind Speed Wind Dir Waves Ship Positions

MiSS Ellie

Owner: Magnolia Marine Transportation Company, Vicksburg, MS. More information available from US FCC via Universal Licensing System and Coast Guard Vessel Documentation Center.

Last reported at 2018-Jul-21 19:30 UTC. Time now 2018-Jul-21 19:36 UTC.
Position N 30°04' W 093°30'.

Length 33 m.

Type: Towing. MMSI: 367756630.

Date/timePositionNaut miles runAvg speedWind from/ knotsBaromVisibWave heightAir tempDewpointWater temp
2018-Jul-21 19:30N 30°04' W 093°30'0 0.0
2018-Jul-21 18:59N 30°04' W 093°30'0 0.0
2018-Jul-21 18:30N 30°04' W 093°30'0 0.0
2018-Jul-21 18:00N 30°04' W 093°30'0 0.0
2018-Jul-21 17:29N 30°04' W 093°30'0 0.0
2018-Jul-21 17:00N 30°04' W 093°30'0 0.0
2018-Jul-21 16:27N 30°04' W 093°30'0 0.0
2018-Jul-21 16:00N 30°04' W 093°30'0 0.0
2018-Jul-21 15:29N 30°04' W 093°30'0 0.0
2018-Jul-21 14:57N 30°04' W 093°30'0 0.0
2018-Jul-21 14:29N 30°04' W 093°30'0 0.0
2018-Jul-21 13:55N 30°04' W 093°30'0 0.0
2018-Jul-21 13:30N 30°04' W 093°30'1 1.0
2018-Jul-21 13:00N 30°04' W 093°30'1 2.5
2018-Jul-21 12:30N 30°04' W 093°32'1 1.4
2018-Jul-21 12:01N 30°04' W 093°32'0 0.0
2018-Jul-21 11:23N 30°04' W 093°32'0 0.0
2018-Jul-21 10:59N 30°04' W 093°32'0 0.7
2018-Jul-21 10:29N 30°04' W 093°33'1 1.6
2018-Jul-21 10:00N 30°04' W 093°34'0 0.0
2018-Jul-21 09:30N 30°04' W 093°34'0 0.0
2018-Jul-21 09:00N 30°04' W 093°34'0 0.0
2018-Jul-21 08:30N 30°04' W 093°34'0 0.0
2018-Jul-21 07:59N 30°04' W 093°34'0 0.0
2018-Jul-21 07:30N 30°04' W 093°34'0 0.0
2018-Jul-21 07:01N 30°04' W 093°34'1 1.2
2018-Jul-21 06:30N 30°04' W 093°34'0 0.0
2018-Jul-21 06:00N 30°04' W 093°34'0 0.0
2018-Jul-21 05:30N 30°04' W 093°34'0 0.0
2018-Jul-21 05:01N 30°04' W 093°34'0 0.9
2018-Jul-21 04:30N 30°04' W 093°35'1 1.9
2018-Jul-21 04:00N 30°04' W 093°36'2 3.2
2018-Jul-21 03:30N 30°04' W 093°38'2 3.5
2018-Jul-21 03:01N 30°04' W 093°40'0 0.0
2018-Jul-21 02:24N 30°04' W 093°40'0 0.0
2018-Jul-21 02:00N 30°04' W 093°40'0 0.0
2018-Jul-21 01:27N 30°04' W 093°40'0 0.0
2018-Jul-21 01:00N 30°04' W 093°40'0 0.0
2018-Jul-21 00:30N 30°04' W 093°40'0 0.0
2018-Jul-20 23:58N 30°04' W 093°40'0 1.0
2018-Jul-20 23:30N 30°04' W 093°40'2 4.3
2018-Jul-20 23:00N 30°03' W 093°43'3 5.6
2018-Jul-20 22:30N 30°01' W 093°45'4 7.3
2018-Jul-20 22:00N 29°59' W 093°48'3 6.6
2018-Jul-20 21:30N 29°57' W 093°52'4 7.9
2018-Jul-20 21:01N 29°54' W 093°54'4 7.6
2018-Jul-20 20:31N 29°51' W 093°57'3 5.0
2018-Jul-20 20:01N 29°49' W 093°59'0 0.0
2018-Jul-20 19:31N 29°49' W 093°59'0 0.0
2018-Jul-20 19:01N 29°49' W 093°59'0 0.0
2018-Jul-20 18:30N 29°49' W 093°59'0 0.0
2018-Jul-20 18:00N 29°49' W 093°59'0 0.0
2018-Jul-20 17:30N 29°49' W 093°59'0 0.0
2018-Jul-20 17:01N 29°49' W 093°59'0 0.0
2018-Jul-20 16:30N 29°49' W 093°59'0 0.0
2018-Jul-20 16:00N 29°49' W 093°59'0 0.0
2018-Jul-20 15:30N 29°49' W 093°59'0 0.0
2018-Jul-20 15:00N 29°49' W 093°59'0 0.8
2018-Jul-20 14:30N 29°49' W 093°59'3 5.2
2018-Jul-20 14:00N 29°47' W 094°01'3 5.6
2018-Jul-20 13:31N 29°45' W 094°04'3 5.6
2018-Jul-20 13:00N 29°44' W 094°06'3 5.2
2018-Jul-20 12:30N 29°42' W 094°09'3 5.3
2018-Jul-20 11:59N 29°41' W 094°12'3 5.7
2018-Jul-20 11:30N 29°40' W 094°14'3 5.7
2018-Jul-20 11:00N 29°38' W 094°17'3 5.6
2018-Jul-20 10:28N 29°37' W 094°20'3 5.8
2018-Jul-20 10:00N 29°36' W 094°23'2 4.6
2018-Jul-20 09:30N 29°34' W 094°25'2 3.3
2018-Jul-20 09:00N 29°34' W 094°27'2 4.9
2018-Jul-20 08:30N 29°32' W 094°29'0 0.4
2018-Jul-20 07:59N 29°32' W 094°29'2 4.9
2018-Jul-20 07:30N 29°31' W 094°31'3 5.8
2018-Jul-20 06:59N 29°30' W 094°35'2 3.5
2018-Jul-20 06:30N 29°29' W 094°36'2 3.1
2018-Jul-20 06:01N 29°28' W 094°38'2 4.8
2018-Jul-20 05:30N 29°27' W 094°40'3 5.6
2018-Jul-20 05:01N 29°26' W 094°43'3 5.1
2018-Jul-20 04:31N 29°24' W 094°45'2 4.9
2018-Jul-20 04:01N 29°22' W 094°47'2 4.2
2018-Jul-20 03:30N 29°24' W 094°49'4 8.1
2018-Jul-20 02:58N 29°28' W 094°51'4 8.5
2018-Jul-20 02:30N 29°31' W 094°53'4 8.5
2018-Jul-20 02:01N 29°35' W 094°56'4 8.7
2018-Jul-20 01:30N 29°39' W 094°58'5 8.9
2018-Jul-20 00:59N 29°42' W 095°01'4 8.3
2018-Jul-20 00:30N 29°45' W 095°04'1 0.2
2018-Jul-19 17:55N 29°46' W 095°05'1 0.1
2018-Jul-19 10:53N 29°45' W 095°06'0 0.0
2018-Jul-19 10:30N 29°45' W 095°06'0 0.0
2018-Jul-19 09:46N 29°45' W 095°06'0 0.0
2018-Jul-19 08:11N 29°45' W 095°06'0 0.0
2018-Jul-19 06:35N 29°45' W 095°06'0 0.0
2018-Jul-18 12:14N 29°45' W 095°06'0 0.0
2018-Jul-18 12:00N 29°45' W 095°06'0 0.0
2018-Jul-18 11:28N 29°45' W 095°06'0 0.0
2018-Jul-18 10:23N 29°45' W 095°06'0 0.0
2018-Jul-18 09:55N 29°45' W 095°06'0 0.0
2018-Jul-18 08:11N 29°45' W 095°06'0 0.0
2018-Jul-18 07:46N 29°45' W 095°06'0 0.0
2018-Jul-18 07:21N 29°45' W 095°06'0 0.0
2018-Jul-18 06:56N 29°45' W 095°06'0 0.0
2018-Jul-18 06:25N 29°45' W 095°06'0 0.0
2018-Jul-18 05:14N 29°45' W 095°06'0 0.0
2018-Jul-18 04:24N 29°45' W 095°06'0 0.0
2018-Jul-18 03:49N 29°45' W 095°06'0 0.0
2018-Jul-18 03:23N 29°45' W 095°06'3 0.5
2018-Jul-17 20:15N 29°48' W 095°04'0 0.1
2018-Jul-17 19:41N 29°48' W 095°04'0 0.0
2018-Jul-17 15:26N 29°48' W 095°04'0 0.1
2018-Jul-17 14:03N 29°48' W 095°04'0 0.3
2018-Jul-17 13:52N 29°48' W 095°04'0 0.1
2018-Jul-17 11:05N 29°48' W 095°04'0 5.7
2018-Jul-17 11:00N 29°48' W 095°04'1 1.7
2018-Jul-17 10:30N 29°47' W 095°04'0 0.0
2018-Jul-17 10:00N 29°47' W 095°04'0 0.6
2018-Jul-17 09:30N 29°47' W 095°04'1 2.6
2018-Jul-17 09:00N 29°46' W 095°05'3 5.5
2018-Jul-17 08:27N 29°44' W 095°02'2 5.5
2018-Jul-17 08:00N 29°42' W 095°00'3 6.6
2018-Jul-17 07:30N 29°39' W 094°58'4 7.6
2018-Jul-17 07:00N 29°36' W 094°57'4 7.4
2018-Jul-17 06:31N 29°33' W 094°54'4 7.1
2018-Jul-17 06:00N 29°30' W 094°52'3 7.0
2018-Jul-17 05:31N 29°27' W 094°50'3 6.8
2018-Jul-17 05:01N 29°23' W 094°49'2 4.2
2018-Jul-17 04:30N 29°23' W 094°46'2 4.5
2018-Jul-17 04:00N 29°24' W 094°45'2 4.1
2018-Jul-17 03:30N 29°26' W 094°43'3 5.6
2018-Jul-17 03:00N 29°28' W 094°40'3 5.4
2018-Jul-17 02:30N 29°29' W 094°37'2 4.5
2018-Jul-17 02:00N 29°29' W 094°35'2 4.4
2018-Jul-17 01:30N 29°30' W 094°33'3 5.4
2018-Jul-17 01:00N 29°31' W 094°30'3 5.0
2018-Jul-17 00:30N 29°33' W 094°28'4 3.7
2018-Jul-16 23:30N 29°36' W 094°25'2 3.8
2018-Jul-16 23:00N 29°36' W 094°22'2 4.5
2018-Jul-16 22:30N 29°37' W 094°20'2 3.9
2018-Jul-16 22:00N 29°38' W 094°18'2 4.6
2018-Jul-16 21:30N 29°39' W 094°16'2 4.7
2018-Jul-16 21:00N 29°40' W 094°13'2 4.6
2018-Jul-16 20:30N 29°41' W 094°11'2 4.6
2018-Jul-16 20:00N 29°42' W 094°09'2 4.7
2018-Jul-16 19:30N 29°43' W 094°06'2 4.8
2018-Jul-16 19:00N 29°45' W 094°04'2 4.8
2018-Jul-16 18:30N 29°46' W 094°02'2 4.6
2018-Jul-16 18:01N 29°48' W 094°00'2 3.5
2018-Jul-16 17:30N 29°49' W 093°59'2 4.2
2018-Jul-16 17:00N 29°51' W 093°57'3 6.8
2018-Jul-16 16:30N 29°53' W 093°55'3 6.1
2018-Jul-16 16:00N 29°56' W 093°52'3 5.6
2018-Jul-16 15:30N 29°58' W 093°51'3 5.2
2018-Jul-16 15:00N 29°59' W 093°48'3 5.2
2018-Jul-16 14:30N 30°01' W 093°46'2 4.1
2018-Jul-16 14:00N 30°02' W 093°44'2 4.6
2018-Jul-16 13:30N 30°03' W 093°42'2 4.9
2018-Jul-16 13:00N 30°04' W 093°39'2 4.9
2018-Jul-16 12:30N 30°04' W 093°36'2 4.6
2018-Jul-16 12:00N 30°04' W 093°34'2 3.9
2018-Jul-16 11:30N 30°04' W 093°31'1 2.9
2018-Jul-16 11:00N 30°04' W 093°30'1 2.9
2018-Jul-16 10:31N 30°04' W 093°28'1 2.3
2018-Jul-16 10:00N 30°04' W 093°27'1 2.8
2018-Jul-16 09:30N 30°04' W 093°25'1 2.6
2018-Jul-16 09:01N 30°04' W 093°24'1 1.9
2018-Jul-16 08:31N 30°04' W 093°23'1 2.5
2018-Jul-16 08:00N 30°04' W 093°21'1 3.0
2018-Jul-16 07:31N 30°05' W 093°20'2 3.5
2018-Jul-16 07:01N 30°06' W 093°18'1 1.9
2018-Jul-16 06:31N 30°05' W 093°18'0 0.6
2018-Jul-16 06:01N 30°05' W 093°17'1 2.4
2018-Jul-16 05:30N 30°04' W 093°16'0 0.6
2018-Jul-16 05:00N 30°04' W 093°16'0 0.2
2018-Jul-16 04:31N 30°04' W 093°16'0 0.0
2018-Jul-16 04:01N 30°04' W 093°16'0 0.1
2018-Jul-16 03:30N 30°04' W 093°16'0 0.5
2018-Jul-16 03:00N 30°04' W 093°16'1 2.8
2018-Jul-16 02:31N 30°02' W 093°15'2 3.7
2018-Jul-16 02:00N 30°01' W 093°14'2 3.7
2018-Jul-16 01:30N 29°59' W 093°13'1 1.2
2018-Jul-16 01:01N 29°59' W 093°12'0 0.1
2018-Jul-16 00:30N 29°59' W 093°12'0 0.0
2018-Jul-16 00:01N 29°59' W 093°12'0 0.0
2018-Jul-15 23:31N 29°59' W 093°12'0 0.0
2018-Jul-15 23:00N 29°59' W 093°12'0 0.0
2018-Jul-15 22:30N 29°59' W 093°12'0 0.0
2018-Jul-15 22:00N 29°59' W 093°12'0 0.0
2018-Jul-15 21:30N 29°59' W 093°12'0 0.0
2018-Jul-15 21:00N 29°59' W 093°12'0 0.0
2018-Jul-15 20:30N 29°59' W 093°12'0 0.0
2018-Jul-15 20:01N 29°59' W 093°12'0 0.0
2018-Jul-15 19:30N 29°59' W 093°12'0 0.0
2018-Jul-15 19:00N 29°59' W 093°12'0 0.0
2018-Jul-15 18:31N 29°59' W 093°12'0 0.1
2018-Jul-15 18:00N 29°59' W 093°12'0 0.1
2018-Jul-15 17:30N 29°59' W 093°12'0 0.0
2018-Jul-15 16:59N 29°59' W 093°12'0 0.0
2018-Jul-15 16:31N 29°59' W 093°12'0 0.0
2018-Jul-15 16:01N 29°59' W 093°12'0 0.0
2018-Jul-15 15:30N 29°59' W 093°12'0 0.0
2018-Jul-15 15:01N 29°59' W 093°12'0 0.0
2018-Jul-15 14:30N 29°59' W 093°12'0 0.0
2018-Jul-15 14:01N 29°59' W 093°12'0 0.0
2018-Jul-15 13:31N 29°59' W 093°12'0 0.0
2018-Jul-15 13:01N 29°59' W 093°12'1 1.7
2018-Jul-15 12:30N 29°58' W 093°12'1 2.2
2018-Jul-15 12:01N 29°58' W 093°11'2 3.9
2018-Jul-15 11:31N 29°56' W 093°09'2 4.5
2018-Jul-15 11:01N 29°56' W 093°07'2 4.3
2018-Jul-15 10:30N 29°56' W 093°04'1 2.1
2018-Jul-15 10:00N 29°56' W 093°03'0 0.0
2018-Jul-15 09:18N 29°56' W 093°03'0 0.0
2018-Jul-15 08:54N 29°56' W 093°03'0 0.0
2018-Jul-15 08:30N 29°56' W 093°03'0 0.0
2018-Jul-15 07:58N 29°56' W 093°03'0 0.0
2018-Jul-15 07:30N 29°56' W 093°03'0 0.0
2018-Jul-15 07:00N 29°56' W 093°03'0 0.0
2018-Jul-15 06:30N 29°56' W 093°03'0 0.0
2018-Jul-15 06:01N 29°56' W 093°03'0 0.0
2018-Jul-15 05:30N 29°56' W 093°03'0 0.0
2018-Jul-15 05:00N 29°56' W 093°03'0 0.0
2018-Jul-15 04:25N 29°56' W 093°03'0 0.0
2018-Jul-15 04:00N 29°56' W 093°03'0 0.0
2018-Jul-15 03:30N 29°56' W 093°03'0 0.0
2018-Jul-15 03:00N 29°56' W 093°03'0 0.0
2018-Jul-15 02:28N 29°56' W 093°03'0 0.0
2018-Jul-15 02:00N 29°56' W 093°03'0 0.0
2018-Jul-15 01:24N 29°56' W 093°03'0 0.0
2018-Jul-15 00:59N 29°56' W 093°03'0 0.0
2018-Jul-15 00:30N 29°56' W 093°03'0 0.0
2018-Jul-15 00:00N 29°56' W 093°03'0 0.0
2018-Jul-14 23:31N 29°56' W 093°03'0 0.0
2018-Jul-14 23:01N 29°56' W 093°03'0 0.0
2018-Jul-14 22:30N 29°56' W 093°03'0 0.0
2018-Jul-14 22:00N 29°56' W 093°03'0 0.0
2018-Jul-14 21:30N 29°56' W 093°03'0 0.0
2018-Jul-14 20:56N 29°56' W 093°03'0 0.0
2018-Jul-14 20:29N 29°56' W 093°03'0 0.0
2018-Jul-14 19:59N 29°56' W 093°03'0 0.0
2018-Jul-14 19:28N 29°56' W 093°03'0 0.0
2018-Jul-14 18:11N 29°56' W 093°03'0 0.1
2018-Jul-14 18:01N 29°56' W 093°03'0 0.0
2018-Jul-14 17:26N 29°56' W 093°03'0 0.1
2018-Jul-14 16:43N 29°56' W 093°03'0 2.0
2018-Jul-14 16:29N 29°56' W 093°03'2 0.8
2018-Jul-14 13:29N 29°56' W 092°60'1 2.4
2018-Jul-14 12:59N 29°56' W 092°58'4 0.9
2018-Jul-14 08:38N 29°56' W 093°03'1 3.8
2018-Jul-14 08:23N 29°56' W 093°04'2 3.8
2018-Jul-14 07:57N 29°56' W 093°06'2 3.8
2018-Jul-14 07:18N 29°56' W 093°09'1 3.5
2018-Jul-14 07:01N 29°56' W 093°10'2 3.7
2018-Jul-14 06:31N 29°58' W 093°11'2 3.8
2018-Jul-14 06:01N 29°59' W 093°13'2 3.8
2018-Jul-14 05:30N 30°01' W 093°14'1 2.7
2018-Jul-14 05:00N 30°02' W 093°15'2 3.4
2018-Jul-14 04:30N 30°03' W 093°16'2 3.5
2018-Jul-14 04:01N 30°05' W 093°17'1 1.8
2018-Jul-14 03:30N 30°05' W 093°18'0 0.9
2018-Jul-14 03:00N 30°06' W 093°18'0 0.8
2018-Jul-14 02:30N 30°06' W 093°18'0 0.3
2018-Jul-14 02:01N 30°06' W 093°18'0 0.0
2018-Jul-14 01:30N 30°06' W 093°18'0 0.0
2018-Jul-14 01:00N 30°06' W 093°18'0 0.0
2018-Jul-14 00:30N 30°06' W 093°18'0 0.0
2018-Jul-14 00:00N 30°06' W 093°18'0 0.0
2018-Jul-13 23:31N 30°06' W 093°18'0 0.0
2018-Jul-13 23:01N 30°06' W 093°18'0 0.0
2018-Jul-13 22:31N 30°06' W 093°18'0 0.0
2018-Jul-13 22:01N 30°06' W 093°18'0 0.0
2018-Jul-13 21:31N 30°06' W 093°18'0 0.0
2018-Jul-13 21:01N 30°06' W 093°18'0 0.0
2018-Jul-13 20:30N 30°06' W 093°18'0 0.0
2018-Jul-13 20:00N 30°06' W 093°18'0 0.0
2018-Jul-13 19:30N 30°06' W 093°18'0 0.0
2018-Jul-13 19:01N 30°06' W 093°18'0 0.0
2018-Jul-13 18:30N 30°06' W 093°18'0 0.0
2018-Jul-13 18:00N 30°06' W 093°18'0 0.0
2018-Jul-13 17:31N 30°06' W 093°18'0 0.0
2018-Jul-13 17:00N 30°06' W 093°18'0 0.0
2018-Jul-13 16:31N 30°06' W 093°18'0 0.1
2018-Jul-13 16:00N 30°06' W 093°18'0 0.0
2018-Jul-13 15:30N 30°06' W 093°18'0 0.0
2018-Jul-13 15:00N 30°06' W 093°18'2 2.1
2018-Jul-13 14:00N 30°05' W 093°20'2 3.2
2018-Jul-13 13:30N 30°04' W 093°21'2 3.0
2018-Jul-13 13:01N 30°04' W 093°23'1 1.9
2018-Jul-13 12:30N 30°04' W 093°24'1 1.5
2018-Jul-13 12:01N 30°04' W 093°25'0 0.2
2018-Jul-13 11:31N 30°04' W 093°25'0 0.0
2018-Jul-13 11:01N 30°04' W 093°25'0 0.0
2018-Jul-13 10:30N 30°04' W 093°25'0 0.0
2018-Jul-13 09:59N 30°04' W 093°25'0 0.0
2018-Jul-13 09:31N 30°04' W 093°25'0 0.0
2018-Jul-13 09:01N 30°04' W 093°25'0 0.0
2018-Jul-13 08:30N 30°04' W 093°25'0 0.0
2018-Jul-13 08:00N 30°04' W 093°25'0 0.0
2018-Jul-13 07:30N 30°04' W 093°25'0 0.0
2018-Jul-13 07:00N 30°04' W 093°25'0 0.0
2018-Jul-13 06:30N 30°04' W 093°25'0 0.0
2018-Jul-13 06:00N 30°04' W 093°25'0 0.0
2018-Jul-13 05:31N 30°04' W 093°25'0 0.0
2018-Jul-13 05:00N 30°04' W 093°25'0 0.0
2018-Jul-13 04:30N 30°04' W 093°25'0 0.0
2018-Jul-13 04:01N 30°04' W 093°25'0 0.0
2018-Jul-13 03:30N 30°04' W 093°25'0 0.0
2018-Jul-13 03:00N 30°04' W 093°25'0 0.0
2018-Jul-13 02:31N 30°04' W 093°25'0 0.0
2018-Jul-13 02:01N 30°04' W 093°25'0 0.0
2018-Jul-13 01:30N 30°04' W 093°25'0 0.0
2018-Jul-13 01:00N 30°04' W 093°25'0 0.0
2018-Jul-13 00:30N 30°04' W 093°25'0 0.0
2018-Jul-13 00:00N 30°04' W 093°25'0 0.0
2018-Jul-12 23:31N 30°04' W 093°25'0 0.0
2018-Jul-12 23:01N 30°04' W 093°25'0 0.0
2018-Jul-12 22:30N 30°04' W 093°25'0 0.0
2018-Jul-12 22:01N 30°04' W 093°25'0 0.0
2018-Jul-12 21:30N 30°04' W 093°25'0 0.0
2018-Jul-12 21:01N 30°04' W 093°25'0 0.0
2018-Jul-12 20:30N 30°04' W 093°25'0 0.0
2018-Jul-12 20:00N 30°04' W 093°25'0 0.0
2018-Jul-12 19:31N 30°04' W 093°25'0 0.0
2018-Jul-12 19:00N 30°04' W 093°25'0 0.0
2018-Jul-12 18:30N 30°04' W 093°25'0 0.0
2018-Jul-12 18:01N 30°04' W 093°25'0 0.0
2018-Jul-12 17:30N 30°04' W 093°25'0 0.0
2018-Jul-12 17:00N 30°04' W 093°25'2 3.9
2018-Jul-12 16:31N 30°04' W 093°27'1 2.8
2018-Jul-12 16:00N 30°04' W 093°29'0 0.0
2018-Jul-12 15:31N 30°04' W 093°29'0 0.0
2018-Jul-12 15:00N 30°04' W 093°29'0 0.0
2018-Jul-12 14:30N 30°04' W 093°29'0 0.0
2018-Jul-12 13:56N 30°04' W 093°29'0 0.0
2018-Jul-12 13:23N 30°04' W 093°29'0 0.0
2018-Jul-12 13:00N 30°04' W 093°29'0 0.0
2018-Jul-12 12:29N 30°04' W 093°29'0 0.0
2018-Jul-12 12:00N 30°04' W 093°29'0 0.0
2018-Jul-12 11:30N 30°04' W 093°29'0 0.0
2018-Jul-12 11:00N 30°04' W 093°29'0 0.0
2018-Jul-12 10:31N 30°04' W 093°29'0 0.0
2018-Jul-12 10:00N 30°04' W 093°29'0 0.0
2018-Jul-12 09:30N 30°04' W 093°29'0 0.0
2018-Jul-12 09:00N 30°04' W 093°29'0 0.0
2018-Jul-12 08:30N 30°04' W 093°29'0 0.0
2018-Jul-12 08:00N 30°04' W 093°29'0 0.0
2018-Jul-12 07:30N 30°04' W 093°29'0 0.0
2018-Jul-12 07:00N 30°04' W 093°29'0 0.0
2018-Jul-12 06:29N 30°04' W 093°29'0 0.0
2018-Jul-12 06:00N 30°04' W 093°29'0 0.0
2018-Jul-12 05:30N 30°04' W 093°29'0 0.0
2018-Jul-12 05:01N 30°04' W 093°29'0 0.0
2018-Jul-12 04:30N 30°04' W 093°29'0 0.0
2018-Jul-12 04:00N 30°04' W 093°29'0 0.0
2018-Jul-12 03:30N 30°04' W 093°29'0 0.0
2018-Jul-12 03:01N 30°04' W 093°29'0 0.0
2018-Jul-12 02:30N 30°04' W 093°29'0 0.0
2018-Jul-12 02:00N 30°04' W 093°29'0 0.0
2018-Jul-12 01:30N 30°04' W 093°29'0 0.0
2018-Jul-12 01:01N 30°04' W 093°29'0 0.0
2018-Jul-12 00:31N 30°04' W 093°29'0 0.0
2018-Jul-12 00:01N 30°04' W 093°29'0 0.0
2018-Jul-11 23:31N 30°04' W 093°29'0 0.0
2018-Jul-11 23:01N 30°04' W 093°29'0 0.0
2018-Jul-11 22:29N 30°04' W 093°29'0 0.0
2018-Jul-11 22:00N 30°04' W 093°29'0 0.0
2018-Jul-11 21:30N 30°04' W 093°29'0 0.0
2018-Jul-11 21:00N 30°04' W 093°29'0 0.0
2018-Jul-11 20:30N 30°04' W 093°29'0 0.0
2018-Jul-11 20:00N 30°04' W 093°29'0 0.0
2018-Jul-11 19:31N 30°04' W 093°29'  
Track history (hours):
 
Tides and Currents Weather Stations Pressure Air Temp Water Temp Dewpoint Dewpoint Depression Visibility Wind Speed Wind Dir Waves Ship Positions

MiSS Ellie

Owner: Magnolia Marine Transportation Company, Vicksburg, MS. More information available from US FCC via Universal Licensing System and Coast Guard Vessel Documentation Center.

Last reported at 2018-Jul-21 19:30 UTC. Time now 2018-Jul-21 19:36 UTC.
Position N 30°04' W 093°30'.

Length 33 m.

Type: Towing. MMSI: 367756630.

Date/timePositionNaut miles runAvg speedWind from/ knotsBaromVisibWave heightAir tempDewpointWater temp
2018-Jul-21 19:30N 30°04' W 093°30'0 0.0
2018-Jul-21 18:59N 30°04' W 093°30'0 0.0
2018-Jul-21 18:30N 30°04' W 093°30'0 0.0
2018-Jul-21 18:00N 30°04' W 093°30'0 0.0
2018-Jul-21 17:29N 30°04' W 093°30'0 0.0
2018-Jul-21 17:00N 30°04' W 093°30'0 0.0
2018-Jul-21 16:27N 30°04' W 093°30'0 0.0
2018-Jul-21 16:00N 30°04' W 093°30'0 0.0
2018-Jul-21 15:29N 30°04' W 093°30'0 0.0
2018-Jul-21 14:57N 30°04' W 093°30'0 0.0
2018-Jul-21 14:29N 30°04' W 093°30'0 0.0
2018-Jul-21 13:55N 30°04' W 093°30'0 0.0
2018-Jul-21 13:30N 30°04' W 093°30'1 1.0
2018-Jul-21 13:00N 30°04' W 093°30'1 2.5
2018-Jul-21 12:30N 30°04' W 093°32'1 1.4
2018-Jul-21 12:01N 30°04' W 093°32'0 0.0
2018-Jul-21 11:23N 30°04' W 093°32'0 0.0
2018-Jul-21 10:59N 30°04' W 093°32'0 0.7
2018-Jul-21 10:29N 30°04' W 093°33'1 1.6
2018-Jul-21 10:00N 30°04' W 093°34'0 0.0
2018-Jul-21 09:30N 30°04' W 093°34'0 0.0
2018-Jul-21 09:00N 30°04' W 093°34'0 0.0
2018-Jul-21 08:30N 30°04' W 093°34'0 0.0
2018-Jul-21 07:59N 30°04' W 093°34'0 0.0
2018-Jul-21 07:30N 30°04' W 093°34'0 0.0
2018-Jul-21 07:01N 30°04' W 093°34'1 1.2
2018-Jul-21 06:30N 30°04' W 093°34'0 0.0
2018-Jul-21 06:00N 30°04' W 093°34'0 0.0
2018-Jul-21 05:30N 30°04' W 093°34'0 0.0
2018-Jul-21 05:01N 30°04' W 093°34'0 0.9
2018-Jul-21 04:30N 30°04' W 093°35'1 1.9
2018-Jul-21 04:00N 30°04' W 093°36'2 3.2
2018-Jul-21 03:30N 30°04' W 093°38'2 3.5
2018-Jul-21 03:01N 30°04' W 093°40'0 0.0
2018-Jul-21 02:24N 30°04' W 093°40'0 0.0
2018-Jul-21 02:00N 30°04' W 093°40'0 0.0
2018-Jul-21 01:27N 30°04' W 093°40'0 0.0
2018-Jul-21 01:00N 30°04' W 093°40'0 0.0
2018-Jul-21 00:30N 30°04' W 093°40'0 0.0
2018-Jul-20 23:58N 30°04' W 093°40'0 1.0
2018-Jul-20 23:30N 30°04' W 093°40'2 4.3
2018-Jul-20 23:00N 30°03' W 093°43'3 5.6
2018-Jul-20 22:30N 30°01' W 093°45'4 7.3
2018-Jul-20 22:00N 29°59' W 093°48'3 6.6
2018-Jul-20 21:30N 29°57' W 093°52'4 7.9
2018-Jul-20 21:01N 29°54' W 093°54'4 7.6
2018-Jul-20 20:31N 29°51' W 093°57'3 5.0
2018-Jul-20 20:01N 29°49' W 093°59'0 0.0
2018-Jul-20 19:31N 29°49' W 093°59'0 0.0
2018-Jul-20 19:01N 29°49' W 093°59'0 0.0
2018-Jul-20 18:30N 29°49' W 093°59'0 0.0
2018-Jul-20 18:00N 29°49' W 093°59'0 0.0
2018-Jul-20 17:30N 29°49' W 093°59'0 0.0
2018-Jul-20 17:01N 29°49' W 093°59'0 0.0
2018-Jul-20 16:30N 29°49' W 093°59'0 0.0
2018-Jul-20 16:00N 29°49' W 093°59'0 0.0
2018-Jul-20 15:30N 29°49' W 093°59'0 0.0
2018-Jul-20 15:00N 29°49' W 093°59'0 0.8
2018-Jul-20 14:30N 29°49' W 093°59'3 5.2
2018-Jul-20 14:00N 29°47' W 094°01'3 5.6
2018-Jul-20 13:31N 29°45' W 094°04'3 5.6
2018-Jul-20 13:00N 29°44' W 094°06'3 5.2
2018-Jul-20 12:30N 29°42' W 094°09'3 5.3
2018-Jul-20 11:59N 29°41' W 094°12'3 5.7
2018-Jul-20 11:30N 29°40' W 094°14'3 5.7
2018-Jul-20 11:00N 29°38' W 094°17'3 5.6
2018-Jul-20 10:28N 29°37' W 094°20'3 5.8
2018-Jul-20 10:00N 29°36' W 094°23'2 4.6
2018-Jul-20 09:30N 29°34' W 094°25'2 3.3
2018-Jul-20 09:00N 29°34' W 094°27'2 4.9
2018-Jul-20 08:30N 29°32' W 094°29'0 0.4
2018-Jul-20 07:59N 29°32' W 094°29'2 4.9
2018-Jul-20 07:30N 29°31' W 094°31'3 5.8
2018-Jul-20 06:59N 29°30' W 094°35'2 3.5
2018-Jul-20 06:30N 29°29' W 094°36'2 3.1
2018-Jul-20 06:01N 29°28' W 094°38'2 4.8
2018-Jul-20 05:30N 29°27' W 094°40'3 5.6
2018-Jul-20 05:01N 29°26' W 094°43'3 5.1
2018-Jul-20 04:31N 29°24' W 094°45'2 4.9
2018-Jul-20 04:01N 29°22' W 094°47'2 4.2
2018-Jul-20 03:30N 29°24' W 094°49'4 8.1
2018-Jul-20 02:58N 29°28' W 094°51'4 8.5
2018-Jul-20 02:30N 29°31' W 094°53'4 8.5
2018-Jul-20 02:01N 29°35' W 094°56'4 8.7
2018-Jul-20 01:30N 29°39' W 094°58'5 8.9
2018-Jul-20 00:59N 29°42' W 095°01'4 8.3
2018-Jul-20 00:30N 29°45' W 095°04'1 0.2
2018-Jul-19 17:55N 29°46' W 095°05'1 0.1
2018-Jul-19 10:53N 29°45' W 095°06'0 0.0
2018-Jul-19 10:30N 29°45' W 095°06'0 0.0
2018-Jul-19 09:46N 29°45' W 095°06'0 0.0
2018-Jul-19 08:11N 29°45' W 095°06'0 0.0
2018-Jul-19 06:35N 29°45' W 095°06'0 0.0
2018-Jul-18 12:14N 29°45' W 095°06'0 0.0
2018-Jul-18 12:00N 29°45' W 095°06'0 0.0
2018-Jul-18 11:28N 29°45' W 095°06'0 0.0
2018-Jul-18 10:23N 29°45' W 095°06'0 0.0
2018-Jul-18 09:55N 29°45' W 095°06'0 0.0
2018-Jul-18 08:11N 29°45' W 095°06'0 0.0
2018-Jul-18 07:46N 29°45' W 095°06'0 0.0
2018-Jul-18 07:21N 29°45' W 095°06'0 0.0
2018-Jul-18 06:56N 29°45' W 095°06'0 0.0
2018-Jul-18 06:25N 29°45' W 095°06'0 0.0
2018-Jul-18 05:14N 29°45' W 095°06'0 0.0
2018-Jul-18 04:24N 29°45' W 095°06'0 0.0
2018-Jul-18 03:49N 29°45' W 095°06'0 0.0
2018-Jul-18 03:23N 29°45' W 095°06'3 0.5
2018-Jul-17 20:15N 29°48' W 095°04'0 0.1
2018-Jul-17 19:41N 29°48' W 095°04'0 0.0
2018-Jul-17 15:26N 29°48' W 095°04'0 0.1
2018-Jul-17 14:03N 29°48' W 095°04'0 0.3
2018-Jul-17 13:52N 29°48' W 095°04'0 0.1
2018-Jul-17 11:05N 29°48' W 095°04'0 5.7
2018-Jul-17 11:00N 29°48' W 095°04'1 1.7
2018-Jul-17 10:30N 29°47' W 095°04'0 0.0
2018-Jul-17 10:00N 29°47' W 095°04'0 0.6
2018-Jul-17 09:30N 29°47' W 095°04'1 2.6
2018-Jul-17 09:00N 29°46' W 095°05'3 5.5
2018-Jul-17 08:27N 29°44' W 095°02'2 5.5
2018-Jul-17 08:00N 29°42' W 095°00'3 6.6
2018-Jul-17 07:30N 29°39' W 094°58'4 7.6
2018-Jul-17 07:00N 29°36' W 094°57'4 7.4
2018-Jul-17 06:31N 29°33' W 094°54'4 7.1
2018-Jul-17 06:00N 29°30' W 094°52'3 7.0
2018-Jul-17 05:31N 29°27' W 094°50'3 6.8
2018-Jul-17 05:01N 29°23' W 094°49'2 4.2
2018-Jul-17 04:30N 29°23' W 094°46'2 4.5
2018-Jul-17 04:00N 29°24' W 094°45'2 4.1
2018-Jul-17 03:30N 29°26' W 094°43'3 5.6
2018-Jul-17 03:00N 29°28' W 094°40'3 5.4
2018-Jul-17 02:30N 29°29' W 094°37'2 4.5
2018-Jul-17 02:00N 29°29' W 094°35'2 4.4
2018-Jul-17 01:30N 29°30' W 094°33'3 5.4
2018-Jul-17 01:00N 29°31' W 094°30'3 5.0
2018-Jul-17 00:30N 29°33' W 094°28'4 3.7
2018-Jul-16 23:30N 29°36' W 094°25'2 3.8
2018-Jul-16 23:00N 29°36' W 094°22'2 4.5
2018-Jul-16 22:30N 29°37' W 094°20'2 3.9
2018-Jul-16 22:00N 29°38' W 094°18'2 4.6
2018-Jul-16 21:30N 29°39' W 094°16'2 4.7
2018-Jul-16 21:00N 29°40' W 094°13'2 4.6
2018-Jul-16 20:30N 29°41' W 094°11'2 4.6
2018-Jul-16 20:00N 29°42' W 094°09'2 4.7
2018-Jul-16 19:30N 29°43' W 094°06'2 4.8
2018-Jul-16 19:00N 29°45' W 094°04'2 4.8
2018-Jul-16 18:30N 29°46' W 094°02'2 4.6
2018-Jul-16 18:01N 29°48' W 094°00'2 3.5
2018-Jul-16 17:30N 29°49' W 093°59'2 4.2
2018-Jul-16 17:00N 29°51' W 093°57'3 6.8
2018-Jul-16 16:30N 29°53' W 093°55'3 6.1
2018-Jul-16 16:00N 29°56' W 093°52'3 5.6
2018-Jul-16 15:30N 29°58' W 093°51'3 5.2
2018-Jul-16 15:00N 29°59' W 093°48'3 5.2
2018-Jul-16 14:30N 30°01' W 093°46'2 4.1
2018-Jul-16 14:00N 30°02' W 093°44'2 4.6
2018-Jul-16 13:30N 30°03' W 093°42'2 4.9
2018-Jul-16 13:00N 30°04' W 093°39'2 4.9
2018-Jul-16 12:30N 30°04' W 093°36'2 4.6
2018-Jul-16 12:00N 30°04' W 093°34'2 3.9
2018-Jul-16 11:30N 30°04' W 093°31'1 2.9
2018-Jul-16 11:00N 30°04' W 093°30'1 2.9
2018-Jul-16 10:31N 30°04' W 093°28'1 2.3
2018-Jul-16 10:00N 30°04' W 093°27'1 2.8
2018-Jul-16 09:30N 30°04' W 093°25'1 2.6
2018-Jul-16 09:01N 30°04' W 093°24'1 1.9
2018-Jul-16 08:31N 30°04' W 093°23'1 2.5
2018-Jul-16 08:00N 30°04' W 093°21'1 3.0
2018-Jul-16 07:31N 30°05' W 093°20'2 3.5
2018-Jul-16 07:01N 30°06' W 093°18'1 1.9
2018-Jul-16 06:31N 30°05' W 093°18'0 0.6
2018-Jul-16 06:01N 30°05' W 093°17'1 2.4
2018-Jul-16 05:30N 30°04' W 093°16'0 0.6
2018-Jul-16 05:00N 30°04' W 093°16'0 0.2
2018-Jul-16 04:31N 30°04' W 093°16'0 0.0
2018-Jul-16 04:01N 30°04' W 093°16'0 0.1
2018-Jul-16 03:30N 30°04' W 093°16'0 0.5
2018-Jul-16 03:00N 30°04' W 093°16'1 2.8
2018-Jul-16 02:31N 30°02' W 093°15'2 3.7
2018-Jul-16 02:00N 30°01' W 093°14'2 3.7
2018-Jul-16 01:30N 29°59' W 093°13'1 1.2
2018-Jul-16 01:01N 29°59' W 093°12'0 0.1
2018-Jul-16 00:30N 29°59' W 093°12'0 0.0
2018-Jul-16 00:01N 29°59' W 093°12'0 0.0
2018-Jul-15 23:31N 29°59' W 093°12'0 0.0
2018-Jul-15 23:00N 29°59' W 093°12'0 0.0
2018-Jul-15 22:30N 29°59' W 093°12'0 0.0
2018-Jul-15 22:00N 29°59' W 093°12'0 0.0
2018-Jul-15 21:30N 29°59' W 093°12'0 0.0
2018-Jul-15 21:00N 29°59' W 093°12'0 0.0
2018-Jul-15 20:30N 29°59' W 093°12'0 0.0
2018-Jul-15 20:01N 29°59' W 093°12'0 0.0
2018-Jul-15 19:30N 29°59' W 093°12'0 0.0
2018-Jul-15 19:00N 29°59' W 093°12'0 0.0
2018-Jul-15 18:31N 29°59' W 093°12'0 0.1
2018-Jul-15 18:00N 29°59' W 093°12'0 0.1
2018-Jul-15 17:30N 29°59' W 093°12'0 0.0
2018-Jul-15 16:59N 29°59' W 093°12'0 0.0
2018-Jul-15 16:31N 29°59' W 093°12'0 0.0
2018-Jul-15 16:01N 29°59' W 093°12'0 0.0
2018-Jul-15 15:30N 29°59' W 093°12'0 0.0
2018-Jul-15 15:01N 29°59' W 093°12'0 0.0
2018-Jul-15 14:30N 29°59' W 093°12'0 0.0
2018-Jul-15 14:01N 29°59' W 093°12'0 0.0
2018-Jul-15 13:31N 29°59' W 093°12'0 0.0
2018-Jul-15 13:01N 29°59' W 093°12'1 1.7
2018-Jul-15 12:30N 29°58' W 093°12'1 2.2
2018-Jul-15 12:01N 29°58' W 093°11'2 3.9
2018-Jul-15 11:31N 29°56' W 093°09'2 4.5
2018-Jul-15 11:01N 29°56' W 093°07'2 4.3
2018-Jul-15 10:30N 29°56' W 093°04'1 2.1
2018-Jul-15 10:00N 29°56' W 093°03'0 0.0
2018-Jul-15 09:18N 29°56' W 093°03'0 0.0
2018-Jul-15 08:54N 29°56' W 093°03'0 0.0
2018-Jul-15 08:30N 29°56' W 093°03'0 0.0
2018-Jul-15 07:58N 29°56' W 093°03'0 0.0
2018-Jul-15 07:30N 29°56' W 093°03'0 0.0
2018-Jul-15 07:00N 29°56' W 093°03'0 0.0
2018-Jul-15 06:30N 29°56' W 093°03'0 0.0
2018-Jul-15 06:01N 29°56' W 093°03'0 0.0
2018-Jul-15 05:30N 29°56' W 093°03'0 0.0
2018-Jul-15 05:00N 29°56' W 093°03'0 0.0
2018-Jul-15 04:25N 29°56' W 093°03'0 0.0
2018-Jul-15 04:00N 29°56' W 093°03'0 0.0
2018-Jul-15 03:30N 29°56' W 093°03'0 0.0
2018-Jul-15 03:00N 29°56' W 093°03'0 0.0
2018-Jul-15 02:28N 29°56' W 093°03'0 0.0
2018-Jul-15 02:00N 29°56' W 093°03'0 0.0
2018-Jul-15 01:24N 29°56' W 093°03'0 0.0
2018-Jul-15 00:59N 29°56' W 093°03'0 0.0
2018-Jul-15 00:30N 29°56' W 093°03'0 0.0
2018-Jul-15 00:00N 29°56' W 093°03'0 0.0
2018-Jul-14 23:31N 29°56' W 093°03'0 0.0
2018-Jul-14 23:01N 29°56' W 093°03'0 0.0
2018-Jul-14 22:30N 29°56' W 093°03'0 0.0
2018-Jul-14 22:00N 29°56' W 093°03'0 0.0
2018-Jul-14 21:30N 29°56' W 093°03'0 0.0
2018-Jul-14 20:56N 29°56' W 093°03'0 0.0
2018-Jul-14 20:29N 29°56' W 093°03'0 0.0
2018-Jul-14 19:59N 29°56' W 093°03'0 0.0
2018-Jul-14 19:28N 29°56' W 093°03'0 0.0
2018-Jul-14 18:11N 29°56' W 093°03'0 0.1
2018-Jul-14 18:01N 29°56' W 093°03'0 0.0
2018-Jul-14 17:26N 29°56' W 093°03'0 0.1
2018-Jul-14 16:43N 29°56' W 093°03'0 2.0
2018-Jul-14 16:29N 29°56' W 093°03'2 0.8
2018-Jul-14 13:29N 29°56' W 092°60'1 2.4
2018-Jul-14 12:59N 29°56' W 092°58'4 0.9
2018-Jul-14 08:38N 29°56' W 093°03'1 3.8
2018-Jul-14 08:23N 29°56' W 093°04'2 3.8
2018-Jul-14 07:57N 29°56' W 093°06'2 3.8
2018-Jul-14 07:18N 29°56' W 093°09'1 3.5
2018-Jul-14 07:01N 29°56' W 093°10'2 3.7
2018-Jul-14 06:31N 29°58' W 093°11'2 3.8
2018-Jul-14 06:01N 29°59' W 093°13'2 3.8
2018-Jul-14 05:30N 30°01' W 093°14'1 2.7
2018-Jul-14 05:00N 30°02' W 093°15'2 3.4
2018-Jul-14 04:30N 30°03' W 093°16'2 3.5
2018-Jul-14 04:01N 30°05' W 093°17'1 1.8
2018-Jul-14 03:30N 30°05' W 093°18'0 0.9
2018-Jul-14 03:00N 30°06' W 093°18'0 0.8
2018-Jul-14 02:30N 30°06' W 093°18'0 0.3
2018-Jul-14 02:01N 30°06' W 093°18'0 0.0
2018-Jul-14 01:30N 30°06' W 093°18'0 0.0
2018-Jul-14 01:00N 30°06' W 093°18'0 0.0
2018-Jul-14 00:30N 30°06' W 093°18'0 0.0
2018-Jul-14 00:00N 30°06' W 093°18'0 0.0
2018-Jul-13 23:31N 30°06' W 093°18'0 0.0
2018-Jul-13 23:01N 30°06' W 093°18'0 0.0
2018-Jul-13 22:31N 30°06' W 093°18'0 0.0
2018-Jul-13 22:01N 30°06' W 093°18'0 0.0
2018-Jul-13 21:31N 30°06' W 093°18'0 0.0
2018-Jul-13 21:01N 30°06' W 093°18'0 0.0
2018-Jul-13 20:30N 30°06' W 093°18'0 0.0
2018-Jul-13 20:00N 30°06' W 093°18'0 0.0
2018-Jul-13 19:30N 30°06' W 093°18'0 0.0
2018-Jul-13 19:01N 30°06' W 093°18'0 0.0
2018-Jul-13 18:30N 30°06' W 093°18'0 0.0
2018-Jul-13 18:00N 30°06' W 093°18'0 0.0
2018-Jul-13 17:31N 30°06' W 093°18'0 0.0
2018-Jul-13 17:00N 30°06' W 093°18'0 0.0
2018-Jul-13 16:31N 30°06' W 093°18'0 0.1
2018-Jul-13 16:00N 30°06' W 093°18'0 0.0
2018-Jul-13 15:30N 30°06' W 093°18'0 0.0
2018-Jul-13 15:00N 30°06' W 093°18'2 2.1
2018-Jul-13 14:00N 30°05' W 093°20'2 3.2
2018-Jul-13 13:30N 30°04' W 093°21'2 3.0
2018-Jul-13 13:01N 30°04' W 093°23'1 1.9
2018-Jul-13 12:30N 30°04' W 093°24'1 1.5
2018-Jul-13 12:01N 30°04' W 093°25'0 0.2
2018-Jul-13 11:31N 30°04' W 093°25'0 0.0
2018-Jul-13 11:01N 30°04' W 093°25'0 0.0
2018-Jul-13 10:30N 30°04' W 093°25'0 0.0
2018-Jul-13 09:59N 30°04' W 093°25'0 0.0
2018-Jul-13 09:31N 30°04' W 093°25'0 0.0
2018-Jul-13 09:01N 30°04' W 093°25'0 0.0
2018-Jul-13 08:30N 30°04' W 093°25'0 0.0
2018-Jul-13 08:00N 30°04' W 093°25'0 0.0
2018-Jul-13 07:30N 30°04' W 093°25'0 0.0
2018-Jul-13 07:00N 30°04' W 093°25'0 0.0
2018-Jul-13 06:30N 30°04' W 093°25'0 0.0
2018-Jul-13 06:00N 30°04' W 093°25'0 0.0
2018-Jul-13 05:31N 30°04' W 093°25'0 0.0
2018-Jul-13 05:00N 30°04' W 093°25'0 0.0
2018-Jul-13 04:30N 30°04' W 093°25'0 0.0
2018-Jul-13 04:01N 30°04' W 093°25'0 0.0
2018-Jul-13 03:30N 30°04' W 093°25'0 0.0
2018-Jul-13 03:00N 30°04' W 093°25'0 0.0
2018-Jul-13 02:31N 30°04' W 093°25'0 0.0
2018-Jul-13 02:01N 30°04' W 093°25'0 0.0
2018-Jul-13 01:30N 30°04' W 093°25'0 0.0
2018-Jul-13 01:00N 30°04' W 093°25'0 0.0
2018-Jul-13 00:30N 30°04' W 093°25'0 0.0
2018-Jul-13 00:00N 30°04' W 093°25'0 0.0
2018-Jul-12 23:31N 30°04' W 093°25'0 0.0
2018-Jul-12 23:01N 30°04' W 093°25'0 0.0
2018-Jul-12 22:30N 30°04' W 093°25'0 0.0
2018-Jul-12 22:01N 30°04' W 093°25'0 0.0
2018-Jul-12 21:30N 30°04' W 093°25'0 0.0
2018-Jul-12 21:01N 30°04' W 093°25'0 0.0
2018-Jul-12 20:30N 30°04' W 093°25'0 0.0
2018-Jul-12 20:00N 30°04' W 093°25'0 0.0
2018-Jul-12 19:31N 30°04' W 093°25'0 0.0
2018-Jul-12 19:00N 30°04' W 093°25'0 0.0
2018-Jul-12 18:30N 30°04' W 093°25'0 0.0
2018-Jul-12 18:01N 30°04' W 093°25'0 0.0
2018-Jul-12 17:30N 30°04' W 093°25'0 0.0
2018-Jul-12 17:00N 30°04' W 093°25'2 3.9
2018-Jul-12 16:31N 30°04' W 093°27'1 2.8
2018-Jul-12 16:00N 30°04' W 093°29'0 0.0
2018-Jul-12 15:31N 30°04' W 093°29'0 0.0
2018-Jul-12 15:00N 30°04' W 093°29'0 0.0
2018-Jul-12 14:30N 30°04' W 093°29'0 0.0
2018-Jul-12 13:56N 30°04' W 093°29'0 0.0
2018-Jul-12 13:23N 30°04' W 093°29'0 0.0
2018-Jul-12 13:00N 30°04' W 093°29'0 0.0
2018-Jul-12 12:29N 30°04' W 093°29'0 0.0
2018-Jul-12 12:00N 30°04' W 093°29'0 0.0
2018-Jul-12 11:30N 30°04' W 093°29'0 0.0
2018-Jul-12 11:00N 30°04' W 093°29'0 0.0
2018-Jul-12 10:31N 30°04' W 093°29'0 0.0
2018-Jul-12 10:00N 30°04' W 093°29'0 0.0
2018-Jul-12 09:30N 30°04' W 093°29'0 0.0
2018-Jul-12 09:00N 30°04' W 093°29'0 0.0
2018-Jul-12 08:30N 30°04' W 093°29'0 0.0
2018-Jul-12 08:00N 30°04' W 093°29'0 0.0
2018-Jul-12 07:30N 30°04' W 093°29'0 0.0
2018-Jul-12 07:00N 30°04' W 093°29'0 0.0
2018-Jul-12 06:29N 30°04' W 093°29'0 0.0
2018-Jul-12 06:00N 30°04' W 093°29'0 0.0
2018-Jul-12 05:30N 30°04' W 093°29'0 0.0
2018-Jul-12 05:01N 30°04' W 093°29'0 0.0
2018-Jul-12 04:30N 30°04' W 093°29'0 0.0
2018-Jul-12 04:00N 30°04' W 093°29'0 0.0
2018-Jul-12 03:30N 30°04' W 093°29'0 0.0
2018-Jul-12 03:01N 30°04' W 093°29'0 0.0
2018-Jul-12 02:30N 30°04' W 093°29'0 0.0
2018-Jul-12 02:00N 30°04' W 093°29'0 0.0
2018-Jul-12 01:30N 30°04' W 093°29'0 0.0
2018-Jul-12 01:01N 30°04' W 093°29'0 0.0
2018-Jul-12 00:31N 30°04' W 093°29'0 0.0
2018-Jul-12 00:01N 30°04' W 093°29'0 0.0
2018-Jul-11 23:31N 30°04' W 093°29'0 0.0
2018-Jul-11 23:01N 30°04' W 093°29'0 0.0
2018-Jul-11 22:29N 30°04' W 093°29'0 0.0
2018-Jul-11 22:00N 30°04' W 093°29'0 0.0
2018-Jul-11 21:30N 30°04' W 093°29'0 0.0
2018-Jul-11 21:00N 30°04' W 093°29'0 0.0
2018-Jul-11 20:30N 30°04' W 093°29'0 0.0
2018-Jul-11 20:00N 30°04' W 093°29'0 0.0
2018-Jul-11 19:31N 30°04' W 093°29'  

Dump ship's entire track history